Terminal Aerodrome Forecast
Issued by NWS

Home | Current Version | Previous Version | Text Only | Print | Product List | Glossary On
Versions: 1 2 3 4 5 6 7 8 9 10 11 12 13 14
000
FTUS41 KRNK 182339
TAFLWB
TAF
KLWB 182339Z 1900/1924 27004KT P6SM VCSH SCT040 BKN070
     FM190400 VRB03KT 4SM BR SCT001 SCT040
     FM190800 VRB03KT 1/2SM FG OVC001
     FM191400 VRB03KT P6SM SCT015
     FM192300 00000KT P6SM FEW050=

USA.gov is the U.S. government's official web portal to all federal, state and local government web resources and services.